Time;durP1;ratioP1;P1;durP2;ratioP2;P2;SDS_P1;SDS_P2;PMS_P1;PMS_P2;Temp;Humidity;BMP_temperature;BMP_pressure;BME280_temperature;BME280_humidity;BME280_pressure;Samples;Min_cycle;Max_cycle;Signal;HPM_P1;HPM_P2
2022/01/01 00:00:43;;;;;;;14.48;7.47;;;9.90;99.90;;;;;;4999096;28;20034;-49
2022/01/01 00:03:08;;;;;;;24.75;10.15;;;9.90;99.90;;;;;;5001305;28;20045;-49
2022/01/01 00:05:34;;;;;;;35.00;13.20;;;9.90;99.90;;;;;;5000182;28;20077;-49
2022/01/01 00:08:02;;;;;;;23.75;11.00;;;9.80;99.90;;;;;;5002166;28;20405;-49
2022/01/01 00:10:28;;;;;;;30.13;12.57;;;9.80;99.90;;;;;;5002405;28;20102;-49
2022/01/01 00:12:54;;;;;;;20.83;10.50;;;9.90;99.90;;;;;;5005072;28;20109;-49
2022/01/01 00:15:20;;;;;;;23.00;9.88;;;9.90;99.90;;;;;;5001157;28;20064;-49
2022/01/01 00:17:46;;;;;;;22.85;9.75;;;9.90;99.90;;;;;;5002215;28;20027;-49
2022/01/01 00:20:13;;;;;;;21.38;9.38;;;9.90;99.90;;;;;;5009250;28;20034;-49
2022/01/01 00:22:40;;;;;;;20.10;8.43;;;9.90;99.90;;;;;;5003822;28;20412;-49
2022/01/01 00:25:07;;;;;;;13.70;7.32;;;9.90;99.90;;;;;;4998967;28;20345;-49
2022/01/01 00:27:33;;;;;;;14.32;7.93;;;9.90;99.90;;;;;;5000984;28;20041;-50
2022/01/01 00:29:59;;;;;;;15.00;6.90;;;9.90;99.90;;;;;;5001569;28;20028;-50
2022/01/01 00:32:24;;;;;;;12.38;6.15;;;9.90;99.90;;;;;;4999369;28;20386;-49
2022/01/01 00:34:53;;;;;;;15.23;6.22;;;9.90;99.90;;;;;;5001080;28;20323;-49
2022/01/01 00:37:19;;;;;;;14.10;6.25;;;9.90;99.90;;;;;;5002485;28;20389;-49
2022/01/01 00:39:44;;;;;;;13.15;6.85;;;9.90;99.90;;;;;;5000805;28;20507;-49
2022/01/01 00:42:10;;;;;;;14.27;6.38;;;9.90;99.90;;;;;;5001070;28;20030;-49
2022/01/01 00:44:36;;;;;;;14.95;6.72;;;9.90;99.90;;;;;;5001698;28;20723;-49
2022/01/01 00:47:02;;;;;;;14.60;6.63;;;9.90;99.90;;;;;;5000826;28;20053;-49
2022/01/01 00:49:28;;;;;;;14.13;5.75;;;9.90;99.90;;;;;;5000570;28;20026;-49
2022/01/01 00:51:55;;;;;;;20.88;7.63;;;9.90;99.90;;;;;;4999849;28;20513;-50
2022/01/01 00:54:21;;;;;;;12.75;6.68;;;9.90;99.90;;;;;;5000947;28;20066;-49
2022/01/01 00:56:46;;;;;;;10.18;5.63;;;9.90;99.90;;;;;;5000058;28;20069;-49
2022/01/01 00:59:12;;;;;;;10.98;5.10;;;9.90;99.90;;;;;;5001762;28;20109;-49
2022/01/01 01:01:38;;;;;;;8.38;5.63;;;9.90;99.90;;;;;;4998700;28;20048;-49
2022/01/01 01:04:04;;;;;;;9.65;4.90;;;9.90;99.90;;;;;;5001992;28;20494;-49
2022/01/01 01:06:30;;;;;;;7.03;4.22;;;9.90;99.90;;;;;;5001571;28;20120;-50
2022/01/01 01:08:58;;;;;;;8.23;4.57;;;9.90;99.90;;;;;;5006189;28;20114;-48
2022/01/01 01:11:25;;;;;;;11.95;4.60;;;9.90;99.90;;;;;;5001251;28;20022;-49
2022/01/01 01:13:58;;;;;;;10.73;4.18;;;9.90;99.90;;;;;;4997462;28;20077;-49
2022/01/01 01:16:25;;;;;;;7.18;3.88;;;9.90;99.90;;;;;;4999764;28;20030;-50
2022/01/01 01:18:53;;;;;;;5.97;3.45;;;9.90;99.90;;;;;;5001015;28;20033;-49
2022/01/01 01:21:19;;;;;;;17.48;7.82;;;9.90;99.90;;;;;;5001199;28;20026;-49
2022/01/01 01:23:46;;;;;;;21.45;10.88;;;9.90;99.90;;;;;;5003446;28;20353;-49
2022/01/01 01:26:11;;;;;;;26.48;11.85;;;9.90;99.90;;;;;;5000569;28;20448;-49
2022/01/01 01:28:40;;;;;;;28.67;11.93;;;9.90;99.90;;;;;;5000082;28;20121;-49
2022/01/01 01:31:05;;;;;;;27.00;13.15;;;9.90;99.90;;;;;;5001245;28;20030;-49
2022/01/01 01:33:31;;;;;;;32.42;14.77;;;9.90;99.90;;;;;;5001634;28;20425;-49
2022/01/01 01:35:57;;;;;;;37.28;16.38;;;9.90;99.90;;;;;;4998383;28;20054;-49
2022/01/01 01:38:23;;;;;;;25.95;13.77;;;9.90;99.90;;;;;;5000548;28;20045;-49
2022/01/01 01:40:48;;;;;;;31.92;14.52;;;9.90;99.90;;;;;;5002202;28;20022;-49
2022/01/01 01:43:14;;;;;;;26.92;12.60;;;9.90;99.90;;;;;;4997094;28;20365;-50
2022/01/01 01:45:42;;;;;;;26.40;13.05;;;9.90;99.90;;;;;;5002786;28;20092;-50
2022/01/01 01:48:07;;;;;;;26.65;12.07;;;9.90;99.90;;;;;;4999300;28;20117;-49
2022/01/01 01:50:37;;;;;;;27.15;13.00;;;9.90;99.90;;;;;;5001363;28;20042;-49
2022/01/01 01:53:03;;;;;;;24.52;11.05;;;9.90;99.90;;;;;;5001391;28;20033;-49
2022/01/01 01:55:29;;;;;;;32.00;11.02;;;9.90;99.90;;;;;;5004158;28;20306;-49
2022/01/01 01:57:56;;;;;;;20.23;11.02;;;9.90;99.90;;;;;;5001252;28;20026;-49
2022/01/01 02:03:09;;;;;;;18.05;8.90;;;9.90;99.90;;;;;;5004737;28;20045;-49
2022/01/01 02:05:39;;;;;;;18.20;8.82;;;9.90;99.90;;;;;;5003538;28;20050;-49
2022/01/01 02:08:06;;;;;;;18.38;9.07;;;9.90;99.90;;;;;;5009679;28;20112;-49
2022/01/01 02:10:33;;;;;;;19.42;10.02;;;9.90;99.90;;;;;;5003086;28;20103;-49
2022/01/01 02:12:59;;;;;;;26.27;13.55;;;9.90;99.90;;;;;;5002213;28;20129;-49
2022/01/01 02:15:42;;;;;;;26.52;11.90;;;9.90;99.90;;;;;;5005267;28;20376;-49
2022/01/01 02:18:08;;;;;;;25.90;12.70;;;9.90;99.90;;;;;;5004995;28;20352;-49
2022/01/01 02:20:33;;;;;;;24.77;10.75;;;9.90;99.90;;;;;;5006175;28;20026;-49
2022/01/01 02:23:01;;;;;;;22.92;9.18;;;9.90;99.90;;;;;;5002053;28;20030;-49
2022/01/01 02:25:27;;;;;;;13.55;7.18;;;9.90;99.90;;;;;;5004971;28;20022;-49
2022/01/01 02:27:54;;;;;;;10.07;5.43;;;9.90;99.90;;;;;;5007568;28;20022;-49
2022/01/01 02:30:19;;;;;;;9.70;5.18;;;9.90;99.90;;;;;;5001035;28;20034;-49
2022/01/01 02:32:45;;;;;;;8.48;4.15;;;9.80;99.90;;;;;;5003910;28;20036;-49
2022/01/01 02:35:14;;;;;;;9.05;3.53;;;9.90;99.90;;;;;;5003687;28;20060;-49
2022/01/01 02:37:40;;;;;;;8.30;4.25;;;9.90;99.90;;;;;;5001381;28;20393;-49
2022/01/01 02:40:07;;;;;;;21.13;3.67;;;9.90;99.90;;;;;;5003721;28;20054;-49
2022/01/01 02:42:34;;;;;;;7.43;3.90;;;9.80;99.90;;;;;;5004490;28;20057;-49
2022/01/01 02:45:02;;;;;;;7.35;4.03;;;9.90;99.90;;;;;;5001849;28;20527;-49
2022/01/01 02:47:28;;;;;;;9.00;5.40;;;9.80;99.90;;;;;;5002934;28;20461;-49
2022/01/01 02:49:53;;;;;;;23.15;9.00;;;9.90;99.90;;;;;;5005481;28;20062;-49
2022/01/01 02:52:19;;;;;;;15.80;8.60;;;9.90;99.90;;;;;;5003339;28;20026;-49
2022/01/01 02:54:44;;;;;;;20.70;8.27;;;9.80;99.90;;;;;;5004096;28;20459;-49
2022/01/01 02:57:10;;;;;;;14.27;7.65;;;9.80;99.90;;;;;;5001927;28;20117;-49
2022/01/01 02:59:35;;;;;;;10.02;5.70;;;9.80;99.90;;;;;;4999816;28;20084;-49
2022/01/01 03:02:01;;;;;;;14.43;5.63;;;9.80;99.90;;;;;;5003054;28;20122;-49
2022/01/01 03:04:27;;;;;;;12.40;5.03;;;9.80;99.90;;;;;;5000817;28;20038;-49
2022/01/01 03:06:55;;;;;;;9.27;4.82;;;9.80;99.90;;;;;;5002688;28;20471;-49
2022/01/01 03:09:24;;;;;;;11.52;4.35;;;9.80;99.90;;;;;;5008168;28;20033;-49
2022/01/01 03:11:50;;;;;;;6.82;3.58;;;9.80;99.90;;;;;;5001579;28;20034;-49
2022/01/01 03:14:17;;;;;;;13.75;6.40;;;9.80;99.90;;;;;;5001409;28;20089;-49
2022/01/01 03:16:46;;;;;;;9.45;4.07;;;9.80;99.90;;;;;;5001155;28;20026;-49
2022/01/01 03:19:12;;;;;;;8.70;3.83;;;9.80;99.90;;;;;;5001709;28;20040;-49
2022/01/01 03:21:38;;;;;;;8.40;3.58;;;9.80;99.90;;;;;;5002158;28;20022;-49
2022/01/01 03:24:04;;;;;;;6.82;3.20;;;9.80;99.90;;;;;;5003841;28;20037;-49
2022/01/01 03:26:29;;;;;;;7.80;3.65;;;9.80;99.90;;;;;;5002984;28;20022;-49
2022/01/01 03:28:55;;;;;;;9.40;4.55;;;9.80;99.90;;;;;;5001643;28;20484;-49
2022/01/01 03:31:21;;;;;;;10.85;6.32;;;9.80;99.90;;;;;;5001996;28;20026;-49
2022/01/01 03:33:46;;;;;;;13.07;5.68;;;9.80;99.90;;;;;;4994185;28;20073;-49
2022/01/01 03:36:12;;;;;;;16.05;7.13;;;9.80;99.90;;;;;;5008359;28;20018;-49
2022/01/01 03:38:38;;;;;;;14.00;6.43;;;9.80;99.90;;;;;;5003317;28;20026;-49
2022/01/01 03:41:03;;;;;;;12.38;5.60;;;9.80;99.90;;;;;;5002995;28;20449;-49
2022/01/01 03:43:29;;;;;;;9.27;5.18;;;9.80;99.90;;;;;;5002911;28;20133;-50
2022/01/01 03:45:54;;;;;;;14.32;5.70;;;9.80;99.90;;;;;;5001127;28;20026;-49
2022/01/01 03:48:20;;;;;;;8.98;5.25;;;9.80;99.90;;;;;;5001281;28;20459;-49
2022/01/01 03:50:46;;;;;;;11.05;5.78;;;9.80;99.90;;;;;;5004302;28;20072;-49
2022/01/01 03:53:11;;;;;;;11.10;5.53;;;9.80;99.90;;;;;;5001705;28;20095;-49
2022/01/01 03:55:37;;;;;;;16.92;6.38;;;9.80;99.90;;;;;;5002909;28;20044;-49
2022/01/01 03:58:02;;;;;;;12.52;5.72;;;9.80;99.90;;;;;;5000397;28;20030;-49
2022/01/01 04:00:28;;;;;;;8.45;4.78;;;9.80;99.90;;;;;;5001096;28;20018;-49
2022/01/01 04:02:54;;;;;;;10.18;5.05;;;9.80;99.90;;;;;;5000173;28;20066;-49
2022/01/01 04:05:19;;;;;;;11.60;5.10;;;9.80;99.90;;;;;;5001065;28;20116;-50
2022/01/01 04:07:45;;;;;;;8.57;4.40;;;9.80;99.90;;;;;;5003306;28;20442;-50
2022/01/01 04:10:11;;;;;;;11.95;5.60;;;9.80;99.90;;;;;;5004023;28;20058;-49
2022/01/01 04:12:37;;;;;;;6.85;3.88;;;9.80;99.90;;;;;;5002772;28;20072;-49
2022/01/01 04:15:03;;;;;;;8.05;4.43;;;9.80;99.90;;;;;;4998182;28;20188;-49
2022/01/01 04:17:31;;;;;;;6.65;3.80;;;9.80;99.90;;;;;;5001809;28;20021;-50
2022/01/01 04:19:57;;;;;;;6.70;3.28;;;9.80;99.90;;;;;;5000570;28;20030;-49
2022/01/01 04:22:23;;;;;;;8.90;4.22;;;9.80;99.90;;;;;;4999153;28;20034;-50
2022/01/01 04:24:48;;;;;;;9.98;4.55;;;9.70;99.90;;;;;;5002755;28;20144;-49
2022/01/01 04:27:14;;;;;;;9.25;4.97;;;9.80;99.90;;;;;;5001316;28;20452;-49
2022/01/01 04:29:41;;;;;;;11.23;5.43;;;9.70;99.90;;;;;;5001101;28;20535;-49
2022/01/01 04:32:06;;;;;;;9.95;4.65;;;9.70;99.90;;;;;;4999457;28;20081;-49
2022/01/01 04:34:32;;;;;;;10.38;4.65;;;9.70;99.90;;;;;;5003968;28;20030;-50
2022/01/01 04:37:02;;;;;;;10.68;5.50;;;9.70;99.90;;;;;;5000401;28;20084;-49
2022/01/01 04:39:28;;;;;;;;;;;9.70;99.90;;;;;;5000698;28;20369;-49
2022/01/01 04:41:54;;;;;;;11.23;4.82;;;9.70;99.90;;;;;;4998281;28;19906;-49
2022/01/01 04:44:20;;;;;;;10.43;5.25;;;9.70;99.90;;;;;;5000176;28;20046;-49
2022/01/01 04:46:46;;;;;;;10.18;4.80;;;9.70;99.90;;;;;;5001434;28;20491;-49
2022/01/01 04:49:11;;;;;;;9.45;4.80;;;9.70;99.90;;;;;;5002009;28;20030;-50
2022/01/01 04:51:37;;;;;;;13.95;5.32;;;9.70;99.90;;;;;;4999191;28;20457;-49
2022/01/01 04:54:03;;;;;;;13.70;5.10;;;9.70;99.90;;;;;;5004278;28;20365;-49
2022/01/01 04:56:32;;;;;;;9.93;5.10;;;9.70;99.90;;;;;;5000268;28;20031;-49
2022/01/01 04:58:58;;;;;;;11.13;5.57;;;9.70;99.90;;;;;;5000204;28;20038;-49
2022/01/01 05:01:24;;;;;;;11.40;4.68;;;9.70;99.90;;;;;;5002324;28;20027;-49
2022/01/01 05:03:49;;;;;;;6.93;4.13;;;9.70;99.90;;;;;;4998638;28;20038;-49
2022/01/01 05:06:15;;;;;;;15.57;5.38;;;9.70;99.90;;;;;;5002078;28;20022;-49
2022/01/01 05:08:40;;;;;;;11.20;5.40;;;9.70;99.90;;;;;;5002230;28;20157;-49
2022/01/01 05:11:07;;;;;;;6.30;4.43;;;9.70;99.90;;;;;;5001608;28;20437;-49
2022/01/01 05:13:32;;;;;;;12.38;5.82;;;9.70;99.90;;;;;;5003066;28;20040;-49
2022/01/01 05:15:58;;;;;;;11.68;4.97;;;9.70;99.90;;;;;;5000965;28;20026;-49
2022/01/01 05:18:24;;;;;;;10.18;4.85;;;9.70;99.90;;;;;;4999494;28;20106;-49
2022/01/01 05:20:50;;;;;;;7.28;4.35;;;9.70;99.90;;;;;;5001302;28;20054;-49
2022/01/01 05:23:16;;;;;;;10.23;5.13;;;9.70;99.90;;;;;;5000858;28;20026;-49
2022/01/01 05:25:42;;;;;;;11.07;4.60;;;9.70;99.90;;;;;;4998595;28;20375;-49
2022/01/01 05:28:08;;;;;;;11.90;6.18;;;9.70;99.90;;;;;;5002805;28;20085;-49
2022/01/01 05:30:34;;;;;;;11.52;6.00;;;9.70;99.90;;;;;;5002595;28;20038;-49
2022/01/01 05:33:02;;;;;;;20.40;7.10;;;9.70;99.90;;;;;;5002482;28;20323;-49
2022/01/01 05:35:28;;;;;;;10.10;5.85;;;9.70;99.90;;;;;;5008067;28;20034;-49
2022/01/01 05:37:54;;;;;;;17.02;5.97;;;9.70;99.90;;;;;;5003616;28;20102;-49
2022/01/01 05:40:19;;;;;;;11.32;5.45;;;9.70;99.90;;;;;;5005275;28;20112;-49
2022/01/01 05:42:45;;;;;;;14.52;7.10;;;9.70;99.90;;;;;;5004581;28;20057;-49
2022/01/01 05:45:11;;;;;;;9.50;5.13;;;9.70;99.90;;;;;;5002579;28;20030;-49
2022/01/01 05:47:37;;;;;;;13.57;6.20;;;9.70;99.90;;;;;;5004985;28;20034;-49
2022/01/01 05:50:04;;;;;;;10.75;6.05;;;9.70;99.90;;;;;;5005611;28;20038;-49
2022/01/01 05:52:30;;;;;;;12.18;6.22;;;9.70;99.90;;;;;;5002334;28;20519;-49
2022/01/01 05:54:55;;;;;;;14.20;6.90;;;9.70;99.90;;;;;;5004544;28;20025;-49
2022/01/01 05:57:21;;;;;;;13.57;6.50;;;9.70;99.90;;;;;;5005303;28;20091;-49
2022/01/01 05:59:47;;;;;;;11.05;6.15;;;9.70;99.90;;;;;;5002218;28;20121;-49
2022/01/01 06:02:12;;;;;;;12.93;6.20;;;9.70;99.90;;;;;;5002728;28;20038;-49
2022/01/01 06:04:38;;;;;;;12.90;6.38;;;9.70;99.90;;;;;;5002772;28;20046;-49
2022/01/01 06:07:04;;;;;;;11.73;6.05;;;9.70;99.90;;;;;;5005991;28;20027;-49
2022/01/01 06:09:30;;;;;;;15.13;6.70;;;9.70;99.90;;;;;;5005416;28;20030;-49
2022/01/01 06:11:55;;;;;;;13.88;6.40;;;9.60;99.90;;;;;;5004242;28;20022;-49
2022/01/01 06:14:21;;;;;;;14.02;5.70;;;9.70;99.90;;;;;;5003082;28;20030;-49
2022/01/01 06:16:48;;;;;;;10.20;4.70;;;9.60;99.90;;;;;;5003084;28;20345;-49
2022/01/01 06:19:14;;;;;;;10.23;5.22;;;9.60;99.90;;;;;;5001877;28;20110;-49
2022/01/01 06:21:40;;;;;;;10.55;4.28;;;9.60;99.90;;;;;;5003549;28;20445;-49
2022/01/01 06:24:06;;;;;;;12.50;4.78;;;9.60;99.90;;;;;;5004961;28;20038;-49
2022/01/01 06:26:32;;;;;;;8.70;4.68;;;9.60;99.90;;;;;;5001870;28;20026;-50
2022/01/01 06:28:57;;;;;;;8.88;4.53;;;9.60;99.90;;;;;;5008238;28;20453;-49
2022/01/01 06:31:23;;;;;;;12.98;5.25;;;9.60;99.90;;;;;;5007638;28;20030;-49
2022/01/01 06:33:49;;;;;;;10.30;4.45;;;9.60;99.90;;;;;;5004501;28;20022;-49
2022/01/01 06:36:17;;;;;;;8.60;4.20;;;9.60;99.90;;;;;;5001251;28;20418;-50
2022/01/01 06:38:45;;;;;;;9.77;4.78;;;9.60;99.90;;;;;;5000641;28;20259;-49
2022/01/01 06:41:11;;;;;;;11.63;4.22;;;9.60;99.90;;;;;;5003591;28;20348;-49
2022/01/01 06:43:38;;;;;;;10.20;5.05;;;9.60;99.90;;;;;;5003508;28;20041;-49
2022/01/01 06:46:07;;;;;;;10.48;4.45;;;9.60;99.90;;;;;;5001707;28;20040;-50
2022/01/01 06:48:33;;;;;;;5.22;3.15;;;9.60;99.90;;;;;;5003107;28;20054;-49
2022/01/01 06:50:59;;;;;;;8.82;3.80;;;9.60;99.90;;;;;;5005554;28;20053;-49
2022/01/01 06:53:24;;;;;;;8.05;3.47;;;9.60;99.90;;;;;;5001824;28;20429;-49
2022/01/01 06:55:50;;;;;;;6.05;3.38;;;9.60;99.90;;;;;;5002773;28;20096;-49
2022/01/01 06:58:16;;;;;;;5.95;3.38;;;9.60;99.90;;;;;;5003931;28;20065;-49
2022/01/01 07:00:41;;;;;;;5.43;3.53;;;9.60;99.90;;;;;;5000045;28;20117;-49
2022/01/01 07:03:07;;;;;;;8.48;3.67;;;9.50;99.90;;;;;;5001562;28;20026;-49
2022/01/01 07:05:33;;;;;;;6.07;2.90;;;9.50;99.90;;;;;;5001406;28;20050;-49
2022/01/01 07:07:59;;;;;;;8.85;3.38;;;9.60;99.90;;;;;;5005634;28;20340;-49
2022/01/01 07:10:24;;;;;;;6.43;3.00;;;9.50;99.90;;;;;;5005573;28;20404;-49
2022/01/01 07:12:50;;;;;;;6.40;2.85;;;9.60;99.90;;;;;;5000747;28;20733;-49
2022/01/01 07:15:16;;;;;;;4.20;2.58;;;9.50;99.90;;;;;;5003530;28;20069;-50
2022/01/01 07:17:42;;;;;;;4.68;2.92;;;9.50;99.90;;;;;;5000147;28;20049;-49
2022/01/01 07:20:09;;;;;;;6.75;3.03;;;9.50;99.90;;;;;;5003707;28;20415;-49
2022/01/01 07:22:40;;;;;;;6.53;3.08;;;9.50;99.90;;;;;;4999947;28;20031;-50
2022/01/01 07:25:06;;;;;;;8.15;2.30;;;9.50;99.90;;;;;;5001100;28;20492;-49
2022/01/01 07:27:32;;;;;;;7.15;3.20;;;9.50;99.90;;;;;;5002953;28;20449;-49
2022/01/01 07:29:57;;;;;;;7.72;3.53;;;9.50;99.90;;;;;;5003723;28;20352;-49
2022/01/01 07:32:24;;;;;;;5.80;3.15;;;9.50;99.90;;;;;;4996104;28;20409;-49
2022/01/01 07:34:50;;;;;;;6.90;3.10;;;9.50;99.90;;;;;;5004664;28;20282;-50
2022/01/01 07:37:15;;;;;;;5.80;3.28;;;9.50;99.90;;;;;;5008191;28;20030;-49
2022/01/01 07:39:41;;;;;;;5.85;3.53;;;9.50;99.90;;;;;;5001504;28;20018;-49
2022/01/01 07:42:07;;;;;;;7.25;3.38;;;9.50;99.90;;;;;;5001337;28;20492;-49
2022/01/01 07:44:33;;;;;;;4.57;2.58;;;9.50;99.90;;;;;;4999844;28;20089;-49
2022/01/01 07:46:58;;;;;;;3.58;2.08;;;9.50;99.90;;;;;;5002116;28;20054;-49
2022/01/01 07:49:24;;;;;;;7.57;3.40;;;9.50;99.90;;;;;;5002109;28;20085;-49
2022/01/01 07:51:49;;;;;;;9.55;3.03;;;9.50;99.90;;;;;;5002636;28;20030;-49
2022/01/01 07:54:15;;;;;;;6.43;3.60;;;9.50;99.90;;;;;;5003565;28;20132;-49
2022/01/01 07:56:41;;;;;;;7.38;4.15;;;9.50;99.90;;;;;;4999196;28;20116;-49
2022/01/01 07:59:06;;;;;;;7.75;3.83;;;9.50;99.90;;;;;;5000825;28;20531;-49
2022/01/01 08:01:32;;;;;;;6.00;3.25;;;9.60;99.90;;;;;;4999169;28;20026;-49
2022/01/01 08:04:01;;;;;;;11.80;4.03;;;9.50;99.90;;;;;;4999070;28;20038;-49
2022/01/01 08:06:31;;;;;;;10.45;4.47;;;9.50;99.90;;;;;;5001915;28;20030;-49
2022/01/01 08:08:57;;;;;;;5.05;2.90;;;9.50;99.90;;;;;;5008348;28;20036;-50
2022/01/01 08:11:24;;;;;;;7.15;3.35;;;9.50;99.90;;;;;;5009889;28;20018;-49
2022/01/01 08:13:50;;;;;;;6.28;3.17;;;9.50;99.90;;;;;;5008535;28;20509;-49
2022/01/01 08:16:15;;;;;;;5.03;3.13;;;9.50;99.90;;;;;;5006417;28;20121;-49
2022/01/01 08:18:41;;;;;;;7.63;3.30;;;9.60;99.90;;;;;;5009411;28;20056;-50
2022/01/01 08:21:06;;;;;;;4.95;3.35;;;9.50;99.90;;;;;;5010623;28;20022;-49
2022/01/01 08:23:32;;;;;;;7.80;3.50;;;9.50;99.90;;;;;;5009306;28;20036;-49
2022/01/01 08:25:58;;;;;;;9.25;3.40;;;9.50;99.90;;;;;;5003935;28;20109;-49
2022/01/01 08:28:24;;;;;;;6.03;3.08;;;9.60;99.90;;;;;;5000996;28;20038;-49
2022/01/01 08:30:50;;;;;;;4.30;2.60;;;9.60;99.90;;;;;;5000583;28;20465;-49
2022/01/01 08:33:15;;;;;;;5.05;2.58;;;9.60;99.90;;;;;;5000024;28;20034;-50
2022/01/01 08:35:41;;;;;;;4.93;2.85;;;9.60;99.90;;;;;;5005013;28;20044;-50
2022/01/01 08:38:07;;;;;;;5.30;2.78;;;9.60;99.90;;;;;;4999795;28;20121;-49
2022/01/01 08:40:33;;;;;;;5.30;3.25;;;9.60;99.90;;;;;;5002196;28;20535;-50
2022/01/01 08:42:59;;;;;;;6.97;3.22;;;9.70;99.90;;;;;;5000540;28;20053;-49
2022/01/01 08:45:25;;;;;;;6.32;3.30;;;9.70;99.90;;;;;;5002510;28;20469;-49
2022/01/01 08:47:51;;;;;;;7.68;2.83;;;9.70;99.90;;;;;;5001035;28;20030;-49
2022/01/01 08:50:17;;;;;;;7.47;3.83;;;9.60;99.90;;;;;;5001714;28;20029;-50
2022/01/01 08:52:43;;;;;;;8.27;4.20;;;9.60;99.90;;;;;;4999143;28;20030;-49
2022/01/01 08:55:09;;;;;;;6.13;3.33;;;9.70;99.90;;;;;;5001343;28;20370;-50
2022/01/01 08:57:35;;;;;;;9.48;3.92;;;9.70;99.90;;;;;;5003608;28;20034;-50
2022/01/01 09:00:03;;;;;;;12.10;5.53;;;9.70;99.90;;;;;;5006069;28;20076;-50
2022/01/01 09:02:29;;;;;;;9.30;5.03;;;9.70;99.90;;;;;;5003747;28;20088;-50
2022/01/01 09:04:55;;;;;;;10.10;4.25;;;9.70;99.90;;;;;;5003047;28;20030;-49
2022/01/01 09:07:20;;;;;;;7.55;3.85;;;9.70;99.90;;;;;;5001137;28;20021;-50
2022/01/01 09:09:46;;;;;;;5.88;3.95;;;9.70;99.90;;;;;;5001598;28;20025;-50
2022/01/01 09:12:12;;;;;;;7.93;3.42;;;9.80;99.90;;;;;;5002533;28;20391;-50
2022/01/01 09:14:38;;;;;;;8.15;4.72;;;9.70;99.90;;;;;;5000261;28;20025;-50
2022/01/01 09:17:06;;;;;;;8.20;4.18;;;9.80;99.90;;;;;;5000702;28;20042;-49
2022/01/01 09:19:32;;;;;;;7.53;4.53;;;9.80;99.90;;;;;;4997215;28;20053;-49
2022/01/01 09:21:57;;;;;;;9.98;4.28;;;9.80;99.90;;;;;;5000150;28;20060;-49
2022/01/01 09:24:23;;;;;;;8.80;4.80;;;9.80;99.90;;;;;;5001808;28;20042;-49
2022/01/01 09:26:49;;;;;;;9.15;4.50;;;9.80;99.90;;;;;;4999269;28;20023;-49
2022/01/01 09:29:14;;;;;;;5.57;3.03;;;9.80;99.90;;;;;;5000430;28;20027;-49
2022/01/01 09:31:42;;;;;;;8.23;4.22;;;9.90;99.90;;;;;;4999327;28;20456;-49
2022/01/01 09:34:08;;;;;;;7.82;4.32;;;9.90;99.90;;;;;;4999562;28;20469;-49
2022/01/01 09:36:34;;;;;;;15.98;5.07;;;10.00;99.90;;;;;;4999777;28;20062;-49
2022/01/01 09:39:00;;;;;;;10.32;4.47;;;9.90;99.90;;;;;;5001166;28;20323;-49
2022/01/01 09:41:26;;;;;;;7.40;3.80;;;10.00;99.90;;;;;;4997622;28;20226;-49
2022/01/01 09:43:57;;;;;;;9.05;3.72;;;10.00;99.90;;;;;;5000602;28;20353;-49
2022/01/01 09:46:22;;;;;;;;;;;10.00;99.90;;;;;;4998405;28;20038;-49
2022/01/01 09:48:50;;;;;;;6.88;4.22;;;10.00;99.90;;;;;;5002749;28;19914;-49
2022/01/01 09:51:16;;;;;;;10.40;5.57;;;10.00;99.90;;;;;;5000836;28;20041;-50
2022/01/01 09:53:42;;;;;;;10.27;4.28;;;10.00;99.90;;;;;;4998645;28;20022;-50
2022/01/01 09:56:07;;;;;;;10.98;3.42;;;10.00;99.90;;;;;;4999231;28;20023;-49
2022/01/01 09:58:34;;;;;;;12.13;4.03;;;10.00;99.90;;;;;;5001049;28;20369;-49
2022/01/01 10:01:02;;;;;;;10.75;5.35;;;10.10;99.90;;;;;;4997955;28;20022;-49
2022/01/01 10:03:38;;;;;;;12.57;4.50;;;10.10;99.90;;;;;;4999817;28;20242;-50
2022/01/01 10:06:09;;;;;;;9.48;4.57;;;10.10;99.90;;;;;;5000502;28;20038;-49
2022/01/01 10:08:38;;;;;;;7.78;3.50;;;10.10;99.90;;;;;;5001663;28;20500;-49
2022/01/01 10:11:05;;;;;;;6.25;3.40;;;10.10;99.90;;;;;;5000430;28;20121;-50
2022/01/01 10:13:33;;;;;;;9.95;4.47;;;10.10;99.90;;;;;;5001352;28;20461;-50
2022/01/01 10:16:01;;;;;;;11.57;4.32;;;10.20;99.90;;;;;;5002795;28;20085;-49
2022/01/01 10:18:33;;;;;;;7.85;3.58;;;10.20;99.90;;;;;;5004463;28;20101;-49
2022/01/01 10:21:23;;;;;;;8.52;3.55;;;10.20;99.90;;;;;;5003722;28;20049;-50
2022/01/01 10:23:52;;;;;;;7.22;3.90;;;10.30;99.90;;;;;;5002149;28;20046;-50
2022/01/01 10:29:14;;;;;;;7.85;4.00;;;10.30;99.90;;;;;;5004401;28;20037;-50
2022/01/01 10:32:04;;;;;;;9.38;4.38;;;10.40;99.90;;;;;;5002027;28;20026;-50
2022/01/01 10:34:37;;;;;;;11.27;3.78;;;10.40;99.90;;;;;;5001051;28;20026;-50
2022/01/01 10:37:05;;;;;;;7.35;3.35;;;10.40;99.90;;;;;;5002129;28;20270;-50
2022/01/01 10:39:31;;;;;;;6.47;3.67;;;10.40;99.90;;;;;;5002625;28;20026;-50
2022/01/01 10:42:00;;;;;;;8.50;3.55;;;10.40;99.90;;;;;;5001378;28;20411;-50
2022/01/01 10:44:27;;;;;;;7.35;3.05;;;10.50;99.90;;;;;;5005251;28;20073;-50
2022/01/01 10:46:53;;;;;;;7.35;3.58;;;10.50;99.90;;;;;;5003751;28;20037;-50
2022/01/01 10:52:18;;;;;;;8.88;4.18;;;10.50;99.90;;;;;;5003606;28;20456;-50
2022/01/01 10:54:53;;;;;;;8.93;3.60;;;10.50;99.90;;;;;;5004317;28;20380;-50
2022/01/01 10:57:41;;;;;;;11.02;5.40;;;10.50;99.90;;;;;;5003332;28;20109;-49
2022/01/01 11:00:20;;;;;;;10.25;4.07;;;10.50;99.90;;;;;;5000476;28;20099;-50
2022/01/01 11:02:51;;;;;;;11.15;4.47;;;10.60;99.90;;;;;;5001218;28;20377;-50
2022/01/01 11:05:33;;;;;;;13.02;6.05;;;10.60;99.90;;;;;;5002020;28;20117;-49
2022/01/01 11:08:00;;;;;;;12.60;5.57;;;10.60;99.90;;;;;;5004824;28;20026;-50
2022/01/01 11:10:26;;;;;;;14.02;5.78;;;10.60;99.90;;;;;;5004746;28;20365;-50
2022/01/01 11:12:53;;;;;;;13.18;5.50;;;10.70;99.90;;;;;;5001405;28;20116;-49
2022/01/01 11:15:20;;;;;;;10.35;4.15;;;10.70;99.90;;;;;;5004152;28;20026;-50
2022/01/01 11:17:47;;;;;;;6.63;3.28;;;10.70;99.90;;;;;;5000529;28;20507;-50
2022/01/01 11:20:13;;;;;;;6.20;2.72;;;10.70;99.90;;;;;;5002132;28;20041;-50
2022/01/01 11:22:39;;;;;;;9.85;4.43;;;10.70;99.90;;;;;;5001591;28;20026;-50
2022/01/01 11:25:05;;;;;;;11.82;5.35;;;10.70;99.90;;;;;;5001949;28;20334;-49
2022/01/01 11:27:31;;;;;;;10.18;4.13;;;10.70;99.90;;;;;;5003793;28;20033;-50
2022/01/01 11:29:59;;;;;;;6.97;4.05;;;10.70;99.90;;;;;;5001647;28;20026;-49
2022/01/01 11:32:57;;;;;;;10.65;4.60;;;10.70;99.90;;;;;;5003951;28;20409;-50
2022/01/01 11:35:35;;;;;;;8.75;4.28;;;10.70;99.90;;;;;;5001909;28;20027;-50
2022/01/01 11:38:12;;;;;;;6.72;3.70;;;10.70;99.90;;;;;;5000901;28;20450;-49
2022/01/01 11:41:04;;;;;;;15.95;5.13;;;10.70;99.90;;;;;;5001520;28;20034;-50
2022/01/01 11:43:29;;;;;;;13.82;4.50;;;10.70;99.90;;;;;;5003137;28;20041;-49
2022/01/01 11:46:00;;;;;;;12.23;4.82;;;10.70;99.90;;;;;;5002164;28;20022;-49
2022/01/01 11:48:55;;;;;;;;;;;10.70;99.90;;;;;;5002033;28;20129;-49
2022/01/01 11:51:42;;;;;;;9.95;3.45;;;10.80;99.90;;;;;;5007200;28;19909;-49
2022/01/01 11:54:15;;;;;;;13.68;6.65;;;10.80;99.90;;;;;;5002300;28;20472;-49
2022/01/01 11:56:49;;;;;;;10.05;4.95;;;10.80;99.90;;;;;;5000556;28;20357;-49
2022/01/01 11:59:18;;;;;;;10.18;5.07;;;10.80;99.90;;;;;;5000909;28;20524;-49
2022/01/01 12:01:43;;;;;;;8.90;4.10;;;10.80;99.90;;;;;;5000472;28;20038;-50
2022/01/01 12:04:25;;;;;;;13.65;5.70;;;10.80;99.90;;;;;;4999391;28;20046;-49
2022/01/01 12:07:13;;;;;;;7.95;4.05;;;10.80;99.90;;;;;;5002538;28;20022;-49
2022/01/01 12:10:03;;;;;;;8.07;3.60;;;10.80;99.90;;;;;;5002948;28;20030;-50
2022/01/01 12:12:48;;;;;;;6.30;3.28;;;10.90;99.90;;;;;;5002339;28;20097;-49
2022/01/01 12:15:36;;;;;;;13.23;6.85;;;10.90;99.90;;;;;;5003585;28;20069;-49
2022/01/01 12:18:19;;;;;;;6.57;2.63;;;10.90;99.90;;;;;;5000145;28;20458;-50
2022/01/01 12:20:50;;;;;;;9.32;4.68;;;10.90;99.90;;;;;;5000826;28;20026;-49
2022/01/01 12:23:25;;;;;;;8.10;3.97;;;10.90;99.90;;;;;;4999944;28;20056;-50
2022/01/01 12:25:52;;;;;;;9.43;3.13;;;11.00;99.90;;;;;;5000787;28;20085;-50
2022/01/01 12:28:26;;;;;;;8.25;3.63;;;11.00;99.90;;;;;;5000053;28;20470;-49
2022/01/01 12:30:52;;;;;;;10.43;5.22;;;11.00;99.90;;;;;;5001639;28;20064;-49
2022/01/01 12:33:41;;;;;;;7.78;3.95;;;11.00;99.90;;;;;;4999030;28;20038;-50
2022/01/01 12:36:09;;;;;;;7.70;3.67;;;11.00;99.90;;;;;;5003985;28;20034;-50
2022/01/01 12:38:39;;;;;;;14.32;5.50;;;11.00;99.90;;;;;;5000225;28;20441;-49
2022/01/01 12:41:17;;;;;;;7.68;4.22;;;11.00;99.90;;;;;;4999873;28;20031;-49
2022/01/01 12:43:45;;;;;;;9.05;4.22;;;11.00;99.90;;;;;;5000462;28;20081;-49
2022/01/01 12:46:13;;;;;;;9.75;4.70;;;11.10;99.90;;;;;;4999228;28;20034;-50
2022/01/01 12:48:39;;;;;;;7.30;2.78;;;11.00;99.90;;;;;;4999724;28;20354;-50
2022/01/01 12:51:10;;;;;;;7.78;3.42;;;11.10;99.90;;;;;;5002338;28;20036;-49
2022/01/01 12:53:37;;;;;;;6.63;3.88;;;11.10;99.90;;;;;;5000642;28;20084;-49
2022/01/01 12:56:09;;;;;;;6.80;2.92;;;11.10;99.90;;;;;;5003359;28;20025;-50
2022/01/01 12:58:37;;;;;;;6.22;3.30;;;11.10;99.90;;;;;;5000879;28;20028;-50
2022/01/01 13:01:27;;;;;;;9.57;4.22;;;11.10;99.90;;;;;;5002106;28;20387;-49